createdAt,value
2024-01-24T00:01:50.958Z,58.17
2024-01-24T00:03:53.967Z,58.93
2024-01-24T00:05:56.728Z,59.71
2024-01-24T00:07:59.891Z,58.80
2024-01-24T00:10:04.214Z,58.89
2024-01-24T00:12:08.460Z,58.45
2024-01-24T00:14:12.641Z,57.59
2024-01-24T00:16:15.246Z,58.48
2024-01-24T00:18:18.980Z,58.56
2024-01-24T00:20:21.825Z,59.58
2024-01-24T00:22:24.662Z,58.94
2024-01-24T00:24:28.285Z,58.84
2024-01-24T00:26:31.476Z,57.82
2024-01-24T00:28:33.990Z,57.08
2024-01-24T00:30:36.977Z,57.75
2024-01-24T00:32:40.940Z,58.56
2024-01-24T00:34:44.396Z,59.18
2024-01-24T00:36:46.968Z,58.10
2024-01-24T00:38:49.530Z,58.83
2024-01-24T00:40:51.971Z,59.38
2024-01-24T00:42:54.877Z,59.45
2024-01-24T00:44:58.149Z,60.13
2024-01-24T00:47:01.424Z,60.15
2024-01-24T00:49:11.778Z,60.49
2024-01-24T00:51:14.367Z,61.40
2024-01-24T00:53:21.521Z,61.97
2024-01-24T00:55:26.491Z,61.02
2024-01-24T00:57:29.997Z,61.21
2024-01-24T00:59:32.458Z,62.05
2024-01-24T01:01:35.922Z,62.20
2024-01-24T01:03:38.627Z,62.51
2024-01-24T01:05:41.215Z,63.04
2024-01-24T01:07:43.833Z,63.02
2024-01-24T01:09:47.104Z,63.88
2024-01-24T01:11:49.683Z,62.27
2024-01-24T01:13:52.796Z,62.83
2024-01-24T01:15:55.324Z,61.56
2024-01-24T01:17:58.473Z,61.02
2024-01-24T01:20:01.685Z,61.25
2024-01-24T01:22:05.820Z,61.02
2024-01-24T01:24:10.017Z,61.60
2024-01-24T01:26:13.104Z,61.23
2024-01-24T01:28:16.396Z,60.52
2024-01-24T01:30:19.243Z,59.77
2024-01-24T01:32:22.117Z,60.23
2024-01-24T01:34:25.385Z,59.93
2024-01-24T01:36:28.293Z,60.62
2024-01-24T01:38:30.726Z,61.26
2024-01-24T01:40:33.188Z,61.54
2024-01-24T01:42:35.921Z,61.18
2024-01-24T01:44:47.437Z,60.49
2024-01-24T01:46:50.741Z,60.96
2024-01-24T01:48:58.271Z,61.31
2024-01-24T01:51:01.331Z,60.88
2024-01-24T01:53:06.065Z,61.21
2024-01-24T01:55:10.420Z,59.71
2024-01-24T01:57:13.580Z,61.33
2024-01-24T01:59:16.430Z,60.41
2024-01-24T02:01:19.478Z,60.27
2024-01-24T02:03:22.913Z,62.20
2024-01-24T02:05:25.751Z,62.26
2024-01-24T02:07:28.350Z,61.56
2024-01-24T02:09:31.773Z,60.89
2024-01-24T02:11:34.965Z,60.43
2024-01-24T02:13:37.603Z,59.19
2024-01-24T02:15:40.124Z,60.48
2024-01-24T02:17:42.617Z,60.70
2024-01-24T02:19:45.794Z,59.49
2024-01-24T02:21:48.289Z,59.49
2024-01-24T02:23:51.959Z,60.04
2024-01-24T02:25:55.649Z,59.44
2024-01-24T02:27:58.244Z,60.76
2024-01-24T02:30:00.952Z,58.57
2024-01-24T02:32:03.524Z,59.20
2024-01-24T02:34:06.752Z,59.13
2024-01-24T02:36:11.160Z,59.96
2024-01-24T02:38:13.887Z,58.77
2024-01-24T02:40:16.989Z,58.26
2024-01-24T02:42:19.764Z,59.26
2024-01-24T02:44:23.091Z,58.87
2024-01-24T02:46:26.583Z,57.82
2024-01-24T02:48:29.117Z,59.03
2024-01-24T02:50:32.329Z,57.99
2024-01-24T02:52:35.224Z,57.99
2024-01-24T02:54:39.484Z,57.74
2024-01-24T02:56:41.976Z,58.43
2024-01-24T02:58:45.126Z,58.48
2024-01-24T03:00:48.521Z,57.57
2024-01-24T03:02:51.061Z,58.43
2024-01-24T03:04:54.845Z,57.22
2024-01-24T03:06:57.473Z,58.17
2024-01-24T03:09:00.698Z,57.76
2024-01-24T03:11:04.074Z,56.59
2024-01-24T03:13:06.529Z,56.80
2024-01-24T03:15:09.427Z,57.13
2024-01-24T03:17:11.953Z,57.47
2024-01-24T03:19:15.395Z,56.84
2024-01-24T03:21:19.356Z,56.54
2024-01-24T03:23:26.872Z,58.06
2024-01-24T03:25:29.308Z,58.08
2024-01-24T03:27:31.811Z,57.58
2024-01-24T03:29:35.004Z,58.26
2024-01-24T03:31:38.552Z,58.98
2024-01-24T03:33:41.746Z,57.59
2024-01-24T03:35:44.208Z,58.37
2024-01-24T03:37:47.037Z,59.31
2024-01-24T03:39:50.409Z,58.65
2024-01-24T03:41:52.877Z,58.92
2024-01-24T03:43:55.327Z,58.45
2024-01-24T03:45:58.533Z,59.57
2024-01-24T03:48:02.048Z,59.97
2024-01-24T03:50:04.722Z,60.77
2024-01-24T03:52:07.404Z,60.70
2024-01-24T03:54:10.586Z,60.31
2024-01-24T03:56:13.594Z,61.67
2024-01-24T03:58:17.394Z,60.86
2024-01-24T04:00:20.016Z,61.04
2024-01-24T04:02:23.359Z,61.28
2024-01-24T04:04:26.644Z,60.74
2024-01-24T04:06:29.202Z,60.62
2024-01-24T04:08:31.690Z,62.00
2024-01-24T04:10:34.480Z,62.43
2024-01-24T04:12:37.048Z,63.59
2024-01-24T04:14:39.524Z,63.07
2024-01-24T04:16:42.660Z,63.78
2024-01-24T04:18:45.674Z,64.34
2024-01-24T04:20:48.701Z,65.12
2024-01-24T04:22:51.962Z,65.30
2024-01-24T04:24:55.165Z,64.70
2024-01-24T04:26:58.884Z,65.96
2024-01-24T04:29:02.167Z,66.24
2024-01-24T04:31:05.779Z,65.89
2024-01-24T04:33:08.971Z,66.49
2024-01-24T04:35:14.133Z,66.06
2024-01-24T04:37:17.483Z,66.56
2024-01-24T04:39:20.437Z,66.60
2024-01-24T04:41:24.959Z,66.45
2024-01-24T04:43:27.386Z,67.53
2024-01-24T04:45:30.419Z,68.02
2024-01-24T04:47:34.111Z,67.54
2024-01-24T04:49:44.540Z,67.72
2024-01-24T04:51:48.390Z,68.22
2024-01-24T04:53:52.733Z,68.19
2024-01-24T04:55:55.999Z,68.13
2024-01-24T04:57:59.744Z,68.15
2024-01-24T05:00:03.193Z,67.76
2024-01-24T05:02:07.564Z,68.63
2024-01-24T05:04:11.159Z,69.15
2024-01-24T05:06:15.300Z,68.73
2024-01-24T05:08:17.848Z,68.74
2024-01-24T05:10:20.968Z,68.54
2024-01-24T05:12:23.451Z,68.50
2024-01-24T05:14:26.710Z,69.66
2024-01-24T05:16:31.116Z,69.56
2024-01-24T05:18:34.833Z,69.60
2024-01-24T05:20:38.762Z,70.33
2024-01-24T05:22:42.503Z,69.55
2024-01-24T05:24:46.647Z,69.70
2024-01-24T05:26:49.533Z,70.53
2024-01-24T05:28:52.166Z,70.18
2024-01-24T05:30:54.991Z,70.94
2024-01-24T05:33:03.326Z,69.47
2024-01-24T05:35:06.470Z,69.46
2024-01-24T05:37:08.981Z,70.06
2024-01-24T05:39:11.708Z,69.52
2024-01-24T05:41:14.157Z,70.04
2024-01-24T05:43:17.169Z,70.86
2024-01-24T05:45:19.938Z,69.51
2024-01-24T05:47:22.876Z,69.81
2024-01-24T05:49:25.644Z,69.58
2024-01-24T05:51:29.438Z,70.04
2024-01-24T05:53:31.974Z,69.62
2024-01-24T05:55:34.434Z,70.67
2024-01-24T05:57:41.343Z,71.12
2024-01-24T05:59:44.353Z,70.89
2024-01-24T06:01:47.000Z,71.64
2024-01-24T06:03:49.659Z,71.05
2024-01-24T06:05:53.012Z,70.66
2024-01-24T06:07:55.697Z,70.98
2024-01-24T06:09:59.198Z,71.69
2024-01-24T06:12:02.863Z,71.79
2024-01-24T06:14:05.970Z,71.84
2024-01-24T06:16:08.508Z,72.08
2024-01-24T06:18:10.992Z,72.69
2024-01-24T06:20:14.145Z,73.12
2024-01-24T06:22:17.372Z,71.70
2024-01-24T06:24:20.861Z,71.47
2024-01-24T06:26:23.881Z,71.62
2024-01-24T06:28:26.369Z,72.95
2024-01-24T06:30:31.121Z,71.68
2024-01-24T06:32:34.737Z,72.69
2024-01-24T06:34:37.783Z,72.10
2024-01-24T06:36:40.746Z,71.93
2024-01-24T06:38:46.060Z,71.96
2024-01-24T06:40:49.400Z,72.96
2024-01-24T06:42:52.370Z,73.17
2024-01-24T06:44:56.624Z,72.39
2024-01-24T06:46:59.085Z,71.21
2024-01-24T06:49:01.972Z,71.63
2024-01-24T06:51:06.487Z,70.60
2024-01-24T06:53:12.297Z,72.02
2024-01-24T06:55:17.457Z,72.68
2024-01-24T06:57:20.108Z,72.73
2024-01-24T06:59:23.172Z,72.28
2024-01-24T07:01:30.436Z,71.80
2024-01-24T07:03:34.478Z,71.75
2024-01-24T07:05:45.686Z,71.56
2024-01-24T07:07:54.200Z,71.63
2024-01-24T07:09:56.938Z,71.39
2024-01-24T07:12:03.111Z,72.35
2024-01-24T07:14:06.574Z,72.88
2024-01-24T07:16:11.573Z,72.96
2024-01-24T07:18:18.402Z,72.60
2024-01-24T07:20:21.640Z,72.12
2024-01-24T07:22:24.139Z,71.98
2024-01-24T07:24:27.272Z,72.27
2024-01-24T07:26:30.108Z,72.57
2024-01-24T07:28:34.209Z,73.32
2024-01-24T07:30:38.085Z,72.88
2024-01-24T07:32:42.891Z,73.23
2024-01-24T07:34:45.538Z,73.29
2024-01-24T07:36:48.161Z,73.07
2024-01-24T07:38:50.629Z,72.21
2024-01-24T07:40:53.097Z,71.39
2024-01-24T07:42:57.681Z,71.09
2024-01-24T07:45:01.960Z,70.93
2024-01-24T07:47:06.567Z,72.09
2024-01-24T07:49:10.480Z,71.73
2024-01-24T07:51:13.098Z,73.04
2024-01-24T07:53:15.998Z,72.94
2024-01-24T07:55:25.144Z,71.72
2024-01-24T07:57:35.900Z,72.82
2024-01-24T07:59:38.460Z,72.40
2024-01-24T08:01:41.753Z,72.55
2024-01-24T08:03:45.716Z,73.74
2024-01-24T08:05:50.008Z,73.79
2024-01-24T08:07:52.915Z,73.53
2024-01-24T08:09:55.474Z,73.06
2024-01-24T08:11:58.133Z,73.17
2024-01-24T08:14:00.631Z,73.50
2024-01-24T08:16:04.994Z,73.25
2024-01-24T08:18:10.047Z,73.39
2024-01-24T08:20:13.595Z,73.24
2024-01-24T08:22:16.656Z,73.16
2024-01-24T08:24:19.531Z,73.26
2024-01-24T08:26:22.051Z,73.47
2024-01-24T08:28:25.024Z,74.32
2024-01-24T08:30:28.046Z,73.49
2024-01-24T08:32:30.520Z,73.04
2024-01-24T08:34:33.942Z,72.70
2024-01-24T08:36:37.452Z,73.48
2024-01-24T08:38:39.933Z,72.75
2024-01-24T08:40:43.031Z,72.73
2024-01-24T08:42:46.706Z,74.09
2024-01-24T08:44:49.212Z,72.36
2024-01-24T08:46:52.637Z,72.89
2024-01-24T08:48:55.143Z,73.16
2024-01-24T08:50:58.386Z,72.73
2024-01-24T08:53:00.845Z,72.36
2024-01-24T08:55:04.316Z,72.15
2024-01-24T08:57:08.336Z,71.82
2024-01-24T08:59:11.509Z,72.88
2024-01-24T09:01:15.014Z,73.61
2024-01-24T09:03:17.960Z,72.96
2024-01-24T09:05:22.629Z,73.39
2024-01-24T09:07:25.116Z,72.71
2024-01-24T09:09:29.375Z,73.32
2024-01-24T09:11:38.263Z,72.98
2024-01-24T09:13:48.831Z,71.61
2024-01-24T09:15:52.049Z,71.39
2024-01-24T09:17:54.613Z,72.80
2024-01-24T09:19:58.186Z,73.50
2024-01-24T09:22:02.714Z,72.49
2024-01-24T09:24:06.404Z,71.61
2024-01-24T09:26:09.324Z,72.02
2024-01-24T09:28:12.122Z,70.82
2024-01-24T09:30:15.088Z,70.59
2024-01-24T09:32:17.648Z,71.15
2024-01-24T09:34:20.167Z,72.70
2024-01-24T09:36:24.802Z,72.06
2024-01-24T09:38:27.296Z,71.44
2024-01-24T09:40:30.509Z,71.17
2024-01-24T09:42:37.606Z,71.79
2024-01-24T09:44:40.876Z,72.17
2024-01-24T09:46:44.892Z,70.88
2024-01-24T09:48:49.080Z,71.81
2024-01-24T09:50:52.402Z,72.16
2024-01-24T09:52:58.401Z,70.56
2024-01-24T09:55:06.887Z,70.62
2024-01-24T09:57:11.410Z,71.89
2024-01-24T09:59:14.843Z,74.17
2024-01-24T10:01:18.790Z,73.70
2024-01-24T10:03:22.436Z,71.91
2024-01-24T10:05:28.194Z,72.40
2024-01-24T10:07:31.112Z,72.65
2024-01-24T10:09:34.158Z,73.81
2024-01-24T10:11:36.879Z,73.86
2024-01-24T10:13:39.845Z,74.29
2024-01-24T10:15:43.503Z,74.34
2024-01-24T10:17:48.483Z,74.83
2024-01-24T10:19:53.177Z,73.37
2024-01-24T10:21:55.887Z,72.28
2024-01-24T10:24:01.290Z,73.63
2024-01-24T10:26:03.942Z,73.31
2024-01-24T10:28:14.839Z,71.82
2024-01-24T10:30:18.038Z,71.85
2024-01-24T10:32:22.057Z,73.26
2024-01-24T10:34:30.127Z,73.62
2024-01-24T10:36:34.902Z,74.10
2024-01-24T10:38:43.013Z,73.51
2024-01-24T10:40:46.227Z,73.41
2024-01-24T10:42:55.397Z,73.15
2024-01-24T10:45:00.436Z,72.28
2024-01-24T10:47:07.094Z,71.91
2024-01-24T10:49:14.848Z,72.28
2024-01-24T10:51:20.296Z,73.11
2024-01-24T10:53:24.619Z,73.11
2024-01-24T10:55:29.100Z,71.88
2024-01-24T10:57:36.754Z,73.42
2024-01-24T10:59:41.028Z,73.25
2024-01-24T11:01:43.960Z,74.06
2024-01-24T11:03:50.828Z,73.79
2024-01-24T11:05:57.493Z,73.86
2024-01-24T11:08:11.735Z,72.46
2024-01-24T11:10:19.995Z,72.79
2024-01-24T11:12:23.052Z,73.23
2024-01-24T11:14:36.386Z,71.66
2024-01-24T11:16:41.210Z,73.31
2024-01-24T11:18:44.884Z,71.50
2024-01-24T11:20:56.269Z,72.15
2024-01-24T11:22:59.288Z,72.33
2024-01-24T11:25:02.035Z,71.88
2024-01-24T11:27:04.988Z,73.44
2024-01-24T11:29:14.388Z,74.42
2024-01-24T11:31:36.876Z,73.10
2024-01-24T11:34:15.447Z,74.60
2024-01-24T11:36:18.748Z,73.29
2024-01-24T11:38:27.171Z,74.45
2024-01-24T11:40:37.523Z,72.58
2024-01-24T11:42:44.903Z,73.63
2024-01-24T11:44:49.017Z,74.48
2024-01-24T11:46:53.349Z,74.34
2024-01-24T11:48:56.517Z,72.97
2024-01-24T11:51:04.262Z,72.62
2024-01-24T11:53:06.977Z,73.25
2024-01-24T11:55:10.126Z,74.98
2024-01-24T11:57:13.428Z,74.88
2024-01-24T11:59:21.688Z,74.85
2024-01-24T12:01:24.526Z,73.89
2024-01-24T12:03:27.874Z,73.59
2024-01-24T12:05:31.132Z,73.05
2024-01-24T12:07:33.834Z,72.41
2024-01-24T12:09:36.690Z,73.74
2024-01-24T12:11:39.177Z,72.66
2024-01-24T12:13:42.307Z,72.26
2024-01-24T12:15:46.016Z,72.01
2024-01-24T12:17:48.802Z,72.60
2024-01-24T12:19:52.510Z,71.26
2024-01-24T12:21:55.825Z,71.72
2024-01-24T12:23:58.547Z,72.34
2024-01-24T12:26:01.205Z,72.18
2024-01-24T12:28:05.080Z,72.74
2024-01-24T12:30:11.126Z,73.76
2024-01-24T12:32:16.302Z,72.57
2024-01-24T12:34:23.177Z,72.63
2024-01-24T12:36:26.111Z,71.99
2024-01-24T12:38:28.638Z,72.72
2024-01-24T12:40:33.081Z,72.52
2024-01-24T12:42:35.910Z,72.79
2024-01-24T12:44:39.794Z,74.67
2024-01-24T12:46:43.076Z,74.19
2024-01-24T12:48:49.115Z,73.39
2024-01-24T12:50:53.087Z,73.67
2024-01-24T12:52:56.997Z,74.03
2024-01-24T12:54:59.882Z,73.50
2024-01-24T12:57:03.323Z,73.04
2024-01-24T12:59:06.372Z,73.60
2024-01-24T13:01:09.002Z,73.19
2024-01-24T13:03:11.642Z,72.05
2024-01-24T13:05:14.774Z,73.45
2024-01-24T13:07:17.571Z,72.68
2024-01-24T13:09:20.273Z,73.75
2024-01-24T13:11:23.627Z,72.72
2024-01-24T13:13:26.269Z,74.03
2024-01-24T13:15:29.851Z,75.09
2024-01-24T13:17:32.389Z,74.13
2024-01-24T13:19:35.408Z,75.15
2024-01-24T13:21:42.764Z,74.54
2024-01-24T13:23:46.344Z,75.91
2024-01-24T13:25:48.975Z,74.42
2024-01-24T13:27:53.095Z,73.59
2024-01-24T13:29:55.874Z,72.47
2024-01-24T13:31:58.640Z,73.49
2024-01-24T13:34:01.214Z,73.78
2024-01-24T13:36:04.339Z,74.32
2024-01-24T13:38:06.924Z,75.26
2024-01-24T13:40:11.011Z,73.74
2024-01-24T13:42:14.304Z,75.10
2024-01-24T13:44:16.900Z,73.99
2024-01-24T13:46:20.149Z,73.57
2024-01-24T13:48:23.693Z,72.82
2024-01-24T13:50:26.974Z,74.29
2024-01-24T13:52:29.635Z,75.41
2024-01-24T13:54:32.631Z,75.39
2024-01-24T13:56:36.911Z,74.00
2024-01-24T13:58:39.513Z,74.63
2024-01-24T14:00:43.544Z,73.56
2024-01-24T14:02:47.388Z,73.03
2024-01-24T14:04:51.254Z,73.21
2024-01-24T14:06:54.097Z,74.30
2024-01-24T14:08:57.252Z,75.04
2024-01-24T14:11:01.124Z,73.70
2024-01-24T14:13:04.376Z,73.10
2024-01-24T14:15:15.366Z,74.90
2024-01-24T14:17:27.456Z,74.70
2024-01-24T14:19:30.189Z,73.27
2024-01-24T14:21:34.021Z,73.05
2024-01-24T14:23:36.539Z,73.05
2024-01-24T14:25:39.216Z,72.96
2024-01-24T14:27:42.938Z,73.34
2024-01-24T14:29:46.466Z,72.95
2024-01-24T14:31:49.422Z,72.87
2024-01-24T14:33:54.329Z,73.09
2024-01-24T14:35:57.558Z,72.94
2024-01-24T14:38:01.629Z,73.23
2024-01-24T14:40:05.068Z,74.80
2024-01-24T14:42:11.510Z,74.64
2024-01-24T14:44:14.442Z,75.46
2024-01-24T14:46:17.787Z,73.82
2024-01-24T14:48:21.671Z,73.74
2024-01-24T14:50:24.658Z,72.61
2024-01-24T14:52:27.241Z,72.77
2024-01-24T14:54:30.242Z,73.00
2024-01-24T14:56:33.889Z,73.03
2024-01-24T14:58:38.241Z,72.29
2024-01-24T15:00:41.529Z,72.87
2024-01-24T15:02:45.223Z,72.47
2024-01-24T15:04:48.529Z,72.60
2024-01-24T15:06:51.603Z,73.25
2024-01-24T15:08:54.883Z,72.15
2024-01-24T15:10:57.873Z,72.46
2024-01-24T15:13:00.936Z,71.87
2024-01-24T15:15:05.758Z,72.00
2024-01-24T15:17:08.326Z,73.02
2024-01-24T15:19:11.599Z,73.33
2024-01-24T15:21:15.422Z,72.87
2024-01-24T15:23:19.130Z,73.19
2024-01-24T15:25:22.912Z,71.99
2024-01-24T15:27:27.264Z,72.88
2024-01-24T15:29:30.306Z,73.32
2024-01-24T15:31:32.907Z,73.32
2024-01-24T15:33:36.290Z,74.05
2024-01-24T15:35:39.826Z,73.74
2024-01-24T15:37:44.689Z,72.91
2024-01-24T15:39:49.813Z,72.46
2024-01-24T15:41:54.118Z,72.25
2024-01-24T15:43:57.311Z,72.22
2024-01-24T15:46:00.561Z,72.51
2024-01-24T15:48:04.032Z,72.45
2024-01-24T15:50:07.013Z,72.26
2024-01-24T15:52:09.761Z,72.30
2024-01-24T15:54:13.662Z,72.22
2024-01-24T15:56:16.287Z,73.63
2024-01-24T15:58:19.913Z,73.71
2024-01-24T16:00:23.668Z,73.45
2024-01-24T16:02:27.256Z,72.73
2024-01-24T16:04:32.063Z,72.50
2024-01-24T16:06:37.104Z,72.34
2024-01-24T16:08:40.141Z,72.57
2024-01-24T16:10:44.078Z,72.70
2024-01-24T16:12:47.168Z,72.58
2024-01-24T16:14:51.245Z,72.49
2024-01-24T16:16:58.711Z,72.83
2024-01-24T16:19:01.968Z,73.29
2024-01-24T16:21:05.992Z,72.86
2024-01-24T16:23:08.569Z,73.11
2024-01-24T16:25:11.608Z,73.03
2024-01-24T16:27:15.492Z,73.33
2024-01-24T16:29:18.381Z,72.90
2024-01-24T16:31:21.795Z,73.11
2024-01-24T16:33:24.890Z,73.02
2024-01-24T16:35:28.273Z,72.95
2024-01-24T16:37:32.014Z,72.89
2024-01-24T16:39:34.454Z,72.98
2024-01-24T16:41:37.401Z,72.85
2024-01-24T16:43:40.027Z,72.79
2024-01-24T16:45:42.567Z,72.79
2024-01-24T16:47:46.781Z,72.95
2024-01-24T16:49:50.109Z,73.19
2024-01-24T16:51:53.171Z,73.21
2024-01-24T16:53:56.884Z,73.26
2024-01-24T16:56:02.210Z,73.11
2024-01-24T16:58:06.328Z,73.51
2024-01-24T17:00:10.993Z,73.24
2024-01-24T17:02:14.190Z,73.27
2024-01-24T17:04:17.510Z,73.36
2024-01-24T17:06:20.994Z,72.81
2024-01-24T17:08:24.183Z,72.76
2024-01-24T17:10:26.974Z,73.19
2024-01-24T17:12:32.169Z,73.36
2024-01-24T17:14:35.718Z,72.77
2024-01-24T17:16:39.411Z,72.96
2024-01-24T17:18:42.553Z,72.90
2024-01-24T17:20:47.401Z,72.72
2024-01-24T17:22:53.007Z,72.81
2024-01-24T17:24:56.974Z,72.92
2024-01-24T17:27:00.331Z,73.35
2024-01-24T17:29:03.637Z,73.16
2024-01-24T17:31:06.735Z,73.20
2024-01-24T17:33:10.449Z,72.89
2024-01-24T17:35:13.488Z,73.40
2024-01-24T17:37:16.571Z,73.39
2024-01-24T17:39:20.201Z,73.67
2024-01-24T17:41:24.064Z,73.82
2024-01-24T17:43:26.987Z,73.46
2024-01-24T17:45:29.483Z,74.02
2024-01-24T17:47:35.033Z,73.85
2024-01-24T17:49:39.136Z,74.00
2024-01-24T17:51:42.526Z,73.87
2024-01-24T17:53:45.392Z,74.07
2024-01-24T17:55:50.477Z,73.78
2024-01-24T17:57:53.505Z,74.21
2024-01-24T17:59:58.323Z,74.36
2024-01-24T18:02:01.748Z,73.90
2024-01-24T18:04:06.290Z,74.40
2024-01-24T18:06:09.511Z,74.62
2024-01-24T18:08:12.943Z,74.37
2024-01-24T18:10:16.980Z,74.27
2024-01-24T18:12:20.211Z,74.63
2024-01-24T18:14:23.417Z,74.42
2024-01-24T18:16:27.052Z,74.75
2024-01-24T18:18:29.704Z,74.56
2024-01-24T18:20:33.984Z,74.20
2024-01-24T18:22:37.145Z,74.73
2024-01-24T18:24:39.644Z,73.99
2024-01-24T18:26:43.254Z,74.18
2024-01-24T18:28:46.135Z,73.85
2024-01-24T18:30:50.598Z,74.44
2024-01-24T18:32:53.543Z,74.31
2024-01-24T18:34:57.014Z,74.52
2024-01-24T18:37:00.149Z,74.63
2024-01-24T18:39:03.482Z,74.49
2024-01-24T18:41:06.661Z,74.50
2024-01-24T18:43:11.017Z,74.65
2024-01-24T18:45:16.031Z,74.79
2024-01-24T18:47:20.982Z,74.81
2024-01-24T18:49:24.578Z,74.93
2024-01-24T18:51:27.447Z,74.46
2024-01-24T18:53:30.476Z,75.24
2024-01-24T18:55:34.115Z,74.62
2024-01-24T18:57:38.092Z,75.22
2024-01-24T18:59:41.130Z,75.04
2024-01-24T19:01:44.285Z,74.92
2024-01-24T19:03:49.516Z,74.93
2024-01-24T19:05:53.622Z,74.99
2024-01-24T19:07:56.682Z,75.41
2024-01-24T19:10:00.159Z,75.48
2024-01-24T19:12:04.233Z,76.29
2024-01-24T19:14:07.540Z,75.40
2024-01-24T19:16:12.489Z,75.57
2024-01-24T19:18:22.798Z,75.61
2024-01-24T19:20:27.682Z,75.32
2024-01-24T19:22:30.981Z,75.27
2024-01-24T19:24:35.728Z,75.28
2024-01-24T19:26:42.178Z,75.66
2024-01-24T19:28:47.676Z,75.35
2024-01-24T19:30:50.675Z,75.20
2024-01-24T19:32:53.562Z,75.68
2024-01-24T19:35:06.559Z,75.76
2024-01-24T19:37:09.980Z,75.44
2024-01-24T19:39:13.190Z,75.07
2024-01-24T19:41:15.715Z,75.24
2024-01-24T19:43:18.586Z,75.16
2024-01-24T19:45:21.981Z,75.72
2024-01-24T19:47:31.194Z,75.09
2024-01-24T19:49:34.220Z,76.01
2024-01-24T19:51:37.175Z,75.78
2024-01-24T19:53:41.854Z,75.72
2024-01-24T19:55:44.396Z,76.19
2024-01-24T19:57:50.135Z,75.73
2024-01-24T19:59:53.585Z,75.98
2024-01-24T20:01:56.483Z,76.45
2024-01-24T20:03:58.983Z,76.49
2024-01-24T20:06:04.933Z,76.36
2024-01-24T20:08:07.444Z,75.84
2024-01-24T20:10:10.901Z,75.68
2024-01-24T20:12:13.383Z,75.84
2024-01-24T20:14:16.482Z,76.41
2024-01-24T20:16:19.669Z,76.12
2024-01-24T20:18:22.987Z,76.63
2024-01-24T20:20:25.894Z,76.41
2024-01-24T20:22:29.421Z,76.09
2024-01-24T20:24:31.900Z,76.52
2024-01-24T20:26:34.854Z,76.67
2024-01-24T20:28:39.059Z,75.91
2024-01-24T20:30:41.558Z,76.05
2024-01-24T20:32:49.219Z,75.80
2024-01-24T20:34:59.961Z,76.62
2024-01-24T20:37:04.050Z,76.88
2024-01-24T20:39:07.458Z,76.17
2024-01-24T20:41:11.570Z,76.43
2024-01-24T20:43:14.430Z,77.06
2024-01-24T20:45:16.900Z,76.55
2024-01-24T20:47:20.885Z,77.02
2024-01-24T20:49:23.437Z,76.34
2024-01-24T20:51:25.959Z,76.63
2024-01-24T20:53:28.423Z,76.75
2024-01-24T20:55:31.642Z,77.21
2024-01-24T20:57:36.177Z,76.57
2024-01-24T20:59:39.189Z,76.46
2024-01-24T21:01:42.218Z,76.95
2024-01-24T21:03:46.831Z,76.67
2024-01-24T21:05:50.122Z,77.03
2024-01-24T21:07:53.239Z,76.88
2024-01-24T21:09:56.464Z,76.61
2024-01-24T21:11:59.812Z,77.50
2024-01-24T21:14:03.284Z,77.11
2024-01-24T21:16:06.662Z,76.98
2024-01-24T21:18:11.056Z,77.21
2024-01-24T21:20:14.550Z,76.82
2024-01-24T21:22:19.324Z,77.00
2024-01-24T21:24:22.768Z,77.20
2024-01-24T21:26:25.834Z,77.65
2024-01-24T21:28:29.017Z,76.82
2024-01-24T21:30:32.373Z,77.48
2024-01-24T21:32:35.581Z,77.05
2024-01-24T21:34:38.093Z,77.21
2024-01-24T21:36:47.591Z,77.00
2024-01-24T21:38:51.231Z,77.30
2024-01-24T21:40:54.482Z,77.25
2024-01-24T21:42:57.452Z,77.72
2024-01-24T21:45:00.435Z,77.43
2024-01-24T21:47:03.446Z,77.25
2024-01-24T21:49:05.996Z,77.57
2024-01-24T21:51:10.512Z,77.44
2024-01-24T21:53:13.309Z,77.73
2024-01-24T21:55:16.541Z,77.54
2024-01-24T21:57:22.241Z,77.41
2024-01-24T21:59:25.203Z,77.76
2024-01-24T22:01:35.125Z,77.45
2024-01-24T22:03:39.255Z,77.32
2024-01-24T22:05:42.162Z,77.60
2024-01-24T22:07:45.036Z,77.96
2024-01-24T22:09:51.395Z,77.47
2024-01-24T22:11:54.609Z,77.57
2024-01-24T22:13:57.119Z,77.70
2024-01-24T22:16:00.697Z,77.93
2024-01-24T22:18:04.107Z,77.64
2024-01-24T22:20:10.476Z,77.88
2024-01-24T22:22:14.089Z,77.79
2024-01-24T22:24:17.551Z,77.81
2024-01-24T22:26:22.263Z,77.38
2024-01-24T22:28:25.281Z,78.18
2024-01-24T22:30:28.335Z,78.24
2024-01-24T22:32:31.533Z,78.29
2024-01-24T22:34:34.642Z,78.06
2024-01-24T22:36:37.804Z,78.41
2024-01-24T22:38:40.541Z,78.62
2024-01-24T22:40:46.708Z,78.85
2024-01-24T22:42:50.100Z,78.57
2024-01-24T22:44:53.290Z,79.08
2024-01-24T22:46:56.499Z,78.24
2024-01-24T22:48:59.825Z,78.59
2024-01-24T22:51:02.949Z,78.22
2024-01-24T22:53:06.505Z,78.10
2024-01-24T22:55:10.241Z,78.24
2024-01-24T22:57:14.154Z,78.40
2024-01-24T22:59:17.319Z,78.21
2024-01-24T23:01:19.985Z,78.38
2024-01-24T23:03:22.598Z,78.52
2024-01-24T23:05:25.069Z,78.52
2024-01-24T23:07:27.597Z,78.57
2024-01-24T23:09:30.259Z,79.14
2024-01-24T23:11:33.689Z,79.01
2024-01-24T23:13:36.497Z,79.40
2024-01-24T23:15:39.636Z,78.88
2024-01-24T23:17:42.976Z,79.03
2024-01-24T23:19:46.327Z,78.78
2024-01-24T23:21:49.535Z,79.48
2024-01-24T23:23:52.659Z,79.02
2024-01-24T23:25:55.595Z,79.37
2024-01-24T23:27:58.499Z,78.95
2024-01-24T23:30:01.022Z,78.86
2024-01-24T23:32:03.786Z,78.59
2024-01-24T23:34:07.181Z,79.76
2024-01-24T23:36:10.949Z,79.35
2024-01-24T23:38:14.112Z,79.24
2024-01-24T23:40:16.818Z,79.03
2024-01-24T23:42:19.322Z,79.41
2024-01-24T23:44:22.474Z,79.09
2024-01-24T23:46:25.648Z,79.67
2024-01-24T23:48:29.006Z,79.12
2024-01-24T23:50:32.677Z,79.36
2024-01-24T23:52:59.026Z,79.66
2024-01-24T23:55:02.735Z,79.54
2024-01-24T23:57:06.122Z,79.33
2024-01-24T23:59:10.228Z,79.62
